sensor_id;sensor_type;location;lat;lon;timestamp;P1;durP1;ratioP1;P2;durP2;ratioP2
46222;SDS011;31943;51.410;7.564;2022-09-19T00:01:26;7.25;;;2.38;;
46222;SDS011;31943;51.410;7.564;2022-09-19T00:03:53;10.23;;;2.70;;
46222;SDS011;31943;51.410;7.564;2022-09-19T00:06:21;11.90;;;2.60;;
46222;SDS011;31943;51.410;7.564;2022-09-19T00:08:48;9.30;;;2.40;;
46222;SDS011;31943;51.410;7.564;2022-09-19T00:11:15;12.70;;;2.53;;
46222;SDS011;31943;51.410;7.564;2022-09-19T00:13:42;8.35;;;2.90;;
46222;SDS011;31943;51.410;7.564;2022-09-19T00:16:10;11.07;;;2.60;;
46222;SDS011;31943;51.410;7.564;2022-09-19T00:18:36;9.70;;;2.28;;
46222;SDS011;31943;51.410;7.564;2022-09-19T00:21:02;11.48;;;2.40;;
46222;SDS011;31943;51.410;7.564;2022-09-19T00:23:28;10.70;;;2.90;;
46222;SDS011;31943;51.410;7.564;2022-09-19T00:25:58;12.15;;;2.97;;
46222;SDS011;31943;51.410;7.564;2022-09-19T00:28:24;9.15;;;1.88;;
46222;SDS011;31943;51.410;7.564;2022-09-19T00:30:50;18.65;;;3.47;;
46222;SDS011;31943;51.410;7.564;2022-09-19T00:33:17;13.48;;;2.33;;
46222;SDS011;31943;51.410;7.564;2022-09-19T00:35:43;7.57;;;2.22;;
46222;SDS011;31943;51.410;7.564;2022-09-19T00:38:08;10.98;;;2.63;;
46222;SDS011;31943;51.410;7.564;2022-09-19T00:40:34;15.43;;;2.63;;
46222;SDS011;31943;51.410;7.564;2022-09-19T00:43:00;7.07;;;2.03;;
46222;SDS011;31943;51.410;7.564;2022-09-19T00:45:26;12.05;;;2.47;;
46222;SDS011;31943;51.410;7.564;2022-09-19T00:47:52;9.20;;;2.42;;
46222;SDS011;31943;51.410;7.564;2022-09-19T00:50:21;11.27;;;2.88;;
46222;SDS011;31943;51.410;7.564;2022-09-19T00:52:51;13.15;;;2.75;;
46222;SDS011;31943;51.410;7.564;2022-09-19T00:55:19;8.70;;;2.35;;
46222;SDS011;31943;51.410;7.564;2022-09-19T00:57:49;12.50;;;2.75;;
46222;SDS011;31943;51.410;7.564;2022-09-19T01:00:20;13.25;;;2.55;;
46222;SDS011;31943;51.410;7.564;2022-09-19T01:02:47;14.07;;;2.53;;
46222;SDS011;31943;51.410;7.564;2022-09-19T01:05:12;14.95;;;2.88;;
46222;SDS011;31943;51.410;7.564;2022-09-19T01:10:33;14.25;;;2.42;;
46222;SDS011;31943;51.410;7.564;2022-09-19T01:13:11;11.00;;;2.67;;
46222;SDS011;31943;51.410;7.564;2022-09-19T01:15:43;12.35;;;3.22;;
46222;SDS011;31943;51.410;7.564;2022-09-19T01:18:14;14.40;;;3.03;;
46222;SDS011;31943;51.410;7.564;2022-09-19T01:20:54;6.57;;;1.98;;
46222;SDS011;31943;51.410;7.564;2022-09-19T01:23:29;13.20;;;2.75;;
46222;SDS011;31943;51.410;7.564;2022-09-19T01:26:10;12.27;;;2.45;;
46222;SDS011;31943;51.410;7.564;2022-09-19T01:28:51;12.50;;;2.30;;
46222;SDS011;31943;51.410;7.564;2022-09-19T01:31:21;13.40;;;2.70;;
46222;SDS011;31943;51.410;7.564;2022-09-19T01:33:51;12.18;;;2.40;;
46222;SDS011;31943;51.410;7.564;2022-09-19T01:38:50;11.57;;;2.53;;
46222;SDS011;31943;51.410;7.564;2022-09-19T01:41:17;8.73;;;2.05;;
46222;SDS011;31943;51.410;7.564;2022-09-19T01:43:44;11.98;;;2.42;;
46222;SDS011;31943;51.410;7.564;2022-09-19T01:46:11;12.18;;;2.13;;
46222;SDS011;31943;51.410;7.564;2022-09-19T01:48:47;11.90;;;2.15;;
46222;SDS011;31943;51.410;7.564;2022-09-19T01:51:21;14.55;;;3.25;;
46222;SDS011;31943;51.410;7.564;2022-09-19T01:53:59;14.10;;;2.72;;
46222;SDS011;31943;51.410;7.564;2022-09-19T01:56:36;14.98;;;2.63;;
46222;SDS011;31943;51.410;7.564;2022-09-19T01:59:12;12.88;;;2.13;;
46222;SDS011;31943;51.410;7.564;2022-09-19T02:01:48;11.10;;;2.28;;
46222;SDS011;31943;51.410;7.564;2022-09-19T02:04:19;14.27;;;3.17;;
46222;SDS011;31943;51.410;7.564;2022-09-19T02:06:49;18.85;;;3.35;;
46222;SDS011;31943;51.410;7.564;2022-09-19T02:09:19;10.43;;;1.90;;
46222;SDS011;31943;51.410;7.564;2022-09-19T02:11:50;10.30;;;2.25;;
46222;SDS011;31943;51.410;7.564;2022-09-19T02:14:17;13.60;;;2.83;;
46222;SDS011;31943;51.410;7.564;2022-09-19T02:16:46;10.73;;;2.35;;
46222;SDS011;31943;51.410;7.564;2022-09-19T02:19:18;12.57;;;2.30;;
46222;SDS011;31943;51.410;7.564;2022-09-19T02:21:50;11.95;;;2.67;;
46222;SDS011;31943;51.410;7.564;2022-09-19T02:24:21;11.30;;;2.28;;
46222;SDS011;31943;51.410;7.564;2022-09-19T02:26:50;11.45;;;2.60;;
46222;SDS011;31943;51.410;7.564;2022-09-19T02:29:19;10.30;;;2.35;;
46222;SDS011;31943;51.410;7.564;2022-09-19T02:31:52;7.88;;;2.13;;
46222;SDS011;31943;51.410;7.564;2022-09-19T02:34:17;9.27;;;2.63;;
46222;SDS011;31943;51.410;7.564;2022-09-19T02:36:44;12.70;;;2.95;;
46222;SDS011;31943;51.410;7.564;2022-09-19T02:39:18;8.23;;;1.70;;
46222;SDS011;31943;51.410;7.564;2022-09-19T02:41:48;12.63;;;3.47;;
46222;SDS011;31943;51.410;7.564;2022-09-19T02:44:23;11.57;;;2.53;;
46222;SDS011;31943;51.410;7.564;2022-09-19T02:46:57;14.05;;;3.30;;
46222;SDS011;31943;51.410;7.564;2022-09-19T02:49:35;13.55;;;2.78;;
46222;SDS011;31943;51.410;7.564;2022-09-19T02:52:08;13.48;;;3.00;;
46222;SDS011;31943;51.410;7.564;2022-09-19T02:54:38;12.95;;;3.17;;
46222;SDS011;31943;51.410;7.564;2022-09-19T02:57:09;13.05;;;3.03;;
46222;SDS011;31943;51.410;7.564;2022-09-19T02:59:37;14.40;;;2.80;;
46222;SDS011;31943;51.410;7.564;2022-09-19T03:02:09;14.70;;;2.85;;
46222;SDS011;31943;51.410;7.564;2022-09-19T03:04:40;12.95;;;2.83;;
46222;SDS011;31943;51.410;7.564;2022-09-19T03:07:11;14.52;;;2.45;;
46222;SDS011;31943;51.410;7.564;2022-09-19T03:09:41;9.70;;;2.50;;
46222;SDS011;31943;51.410;7.564;2022-09-19T03:12:13;10.32;;;3.65;;
46222;SDS011;31943;51.410;7.564;2022-09-19T03:14:45;15.15;;;2.72;;
46222;SDS011;31943;51.410;7.564;2022-09-19T03:17:14;10.93;;;2.42;;
46222;SDS011;31943;51.410;7.564;2022-09-19T03:19:44;12.43;;;2.92;;
46222;SDS011;31943;51.410;7.564;2022-09-19T03:22:10;15.52;;;2.90;;
46222;SDS011;31943;51.410;7.564;2022-09-19T03:24:35;12.95;;;2.80;;
46222;SDS011;31943;51.410;7.564;2022-09-19T03:27:01;10.13;;;2.60;;
46222;SDS011;31943;51.410;7.564;2022-09-19T03:29:27;12.65;;;2.30;;
46222;SDS011;31943;51.410;7.564;2022-09-19T03:31:52;13.82;;;2.85;;
46222;SDS011;31943;51.410;7.564;2022-09-19T03:34:19;11.95;;;2.95;;
46222;SDS011;31943;51.410;7.564;2022-09-19T03:36:45;13.52;;;2.65;;
46222;SDS011;31943;51.410;7.564;2022-09-19T03:39:11;15.00;;;3.13;;
46222;SDS011;31943;51.410;7.564;2022-09-19T03:41:36;11.98;;;2.38;;
46222;SDS011;31943;51.410;7.564;2022-09-19T03:44:02;14.23;;;3.30;;
46222;SDS011;31943;51.410;7.564;2022-09-19T03:46:28;12.68;;;2.58;;
46222;SDS011;31943;51.410;7.564;2022-09-19T03:48:55;10.13;;;2.35;;
46222;SDS011;31943;51.410;7.564;2022-09-19T03:51:23;23.27;;;4.38;;
46222;SDS011;31943;51.410;7.564;2022-09-19T03:53:49;13.57;;;3.35;;
46222;SDS011;31943;51.410;7.564;2022-09-19T03:56:15;9.80;;;2.60;;
46222;SDS011;31943;51.410;7.564;2022-09-19T03:58:42;8.63;;;2.63;;
46222;SDS011;31943;51.410;7.564;2022-09-19T04:01:08;12.55;;;2.53;;
46222;SDS011;31943;51.410;7.564;2022-09-19T04:03:34;11.95;;;2.50;;
46222;SDS011;31943;51.410;7.564;2022-09-19T04:06:02;8.82;;;2.47;;
46222;SDS011;31943;51.410;7.564;2022-09-19T04:08:35;12.93;;;2.90;;
46222;SDS011;31943;51.410;7.564;2022-09-19T04:11:04;11.85;;;2.80;;
46222;SDS011;31943;51.410;7.564;2022-09-19T04:13:31;10.90;;;3.10;;
46222;SDS011;31943;51.410;7.564;2022-09-19T04:15:57;11.80;;;3.53;;
46222;SDS011;31943;51.410;7.564;2022-09-19T04:18:23;20.02;;;4.30;;
46222;SDS011;31943;51.410;7.564;2022-09-19T04:20:49;13.32;;;3.70;;
46222;SDS011;31943;51.410;7.564;2022-09-19T04:23:15;12.55;;;3.47;;
46222;SDS011;31943;51.410;7.564;2022-09-19T04:25:57;11.25;;;2.90;;
46222;SDS011;31943;51.410;7.564;2022-09-19T04:28:23;16.92;;;7.97;;
46222;SDS011;31943;51.410;7.564;2022-09-19T04:30:49;15.30;;;4.78;;
46222;SDS011;31943;51.410;7.564;2022-09-19T04:33:16;13.93;;;2.90;;
46222;SDS011;31943;51.410;7.564;2022-09-19T04:36:04;16.00;;;4.10;;
46222;SDS011;31943;51.410;7.564;2022-09-19T04:38:32;13.82;;;3.55;;
46222;SDS011;31943;51.410;7.564;2022-09-19T04:41:00;14.27;;;3.28;;
46222;SDS011;31943;51.410;7.564;2022-09-19T04:43:26;12.02;;;3.13;;
46222;SDS011;31943;51.410;7.564;2022-09-19T04:45:53;14.68;;;3.25;;
46222;SDS011;31943;51.410;7.564;2022-09-19T04:48:21;16.90;;;3.17;;
46222;SDS011;31943;51.410;7.564;2022-09-19T04:50:49;15.75;;;3.20;;
46222;SDS011;31943;51.410;7.564;2022-09-19T04:53:16;11.63;;;3.13;;
46222;SDS011;31943;51.410;7.564;2022-09-19T04:55:41;12.07;;;2.40;;
46222;SDS011;31943;51.410;7.564;2022-09-19T04:58:09;13.13;;;3.28;;
46222;SDS011;31943;51.410;7.564;2022-09-19T05:00:37;9.80;;;2.70;;
46222;SDS011;31943;51.410;7.564;2022-09-19T05:03:03;11.88;;;3.15;;
46222;SDS011;31943;51.410;7.564;2022-09-19T05:05:30;14.50;;;2.60;;
46222;SDS011;31943;51.410;7.564;2022-09-19T05:07:55;15.68;;;3.28;;
46222;SDS011;31943;51.410;7.564;2022-09-19T05:10:21;11.15;;;3.03;;
46222;SDS011;31943;51.410;7.564;2022-09-19T05:12:47;13.18;;;3.28;;
46222;SDS011;31943;51.410;7.564;2022-09-19T05:15:14;18.63;;;3.13;;
46222;SDS011;31943;51.410;7.564;2022-09-19T05:17:40;11.13;;;2.78;;
46222;SDS011;31943;51.410;7.564;2022-09-19T05:20:08;16.00;;;4.00;;
46222;SDS011;31943;51.410;7.564;2022-09-19T05:22:34;13.63;;;3.42;;
46222;SDS011;31943;51.410;7.564;2022-09-19T05:25:00;12.15;;;3.13;;
46222;SDS011;31943;51.410;7.564;2022-09-19T05:27:25;16.73;;;3.50;;
46222;SDS011;31943;51.410;7.564;2022-09-19T05:29:51;15.50;;;4.00;;
46222;SDS011;31943;51.410;7.564;2022-09-19T05:32:18;13.98;;;3.17;;
46222;SDS011;31943;51.410;7.564;2022-09-19T05:34:43;14.77;;;3.22;;
46222;SDS011;31943;51.410;7.564;2022-09-19T05:37:09;10.77;;;2.78;;
46222;SDS011;31943;51.410;7.564;2022-09-19T05:39:34;13.85;;;3.17;;
46222;SDS011;31943;51.410;7.564;2022-09-19T05:42:00;15.00;;;3.55;;
46222;SDS011;31943;51.410;7.564;2022-09-19T05:44:26;14.35;;;3.10;;
46222;SDS011;31943;51.410;7.564;2022-09-19T05:46:52;12.98;;;2.70;;
46222;SDS011;31943;51.410;7.564;2022-09-19T05:49:19;13.40;;;3.03;;
46222;SDS011;31943;51.410;7.564;2022-09-19T05:51:45;13.38;;;2.70;;
46222;SDS011;31943;51.410;7.564;2022-09-19T05:54:11;13.10;;;3.25;;
46222;SDS011;31943;51.410;7.564;2022-09-19T05:56:36;17.20;;;3.38;;
46222;SDS011;31943;51.410;7.564;2022-09-19T05:59:03;16.10;;;4.53;;
46222;SDS011;31943;51.410;7.564;2022-09-19T06:01:29;14.98;;;3.53;;
46222;SDS011;31943;51.410;7.564;2022-09-19T06:03:55;17.85;;;3.17;;
46222;SDS011;31943;51.410;7.564;2022-09-19T06:06:22;12.82;;;2.67;;
46222;SDS011;31943;51.410;7.564;2022-09-19T06:08:53;12.75;;;2.90;;
46222;SDS011;31943;51.410;7.564;2022-09-19T06:11:19;13.57;;;2.90;;
46222;SDS011;31943;51.410;7.564;2022-09-19T06:13:45;10.38;;;2.47;;
46222;SDS011;31943;51.410;7.564;2022-09-19T06:16:11;15.20;;;3.05;;
46222;SDS011;31943;51.410;7.564;2022-09-19T06:18:37;13.18;;;3.08;;
46222;SDS011;31943;51.410;7.564;2022-09-19T06:21:02;10.65;;;2.83;;
46222;SDS011;31943;51.410;7.564;2022-09-19T06:23:30;15.15;;;3.00;;
46222;SDS011;31943;51.410;7.564;2022-09-19T06:25:56;12.48;;;2.35;;
46222;SDS011;31943;51.410;7.564;2022-09-19T06:28:21;15.48;;;3.72;;
46222;SDS011;31943;51.410;7.564;2022-09-19T06:30:48;14.20;;;3.20;;
46222;SDS011;31943;51.410;7.564;2022-09-19T06:33:13;12.52;;;3.35;;
46222;SDS011;31943;51.410;7.564;2022-09-19T06:35:39;14.05;;;2.72;;
46222;SDS011;31943;51.410;7.564;2022-09-19T06:38:05;13.30;;;3.05;;
46222;SDS011;31943;51.410;7.564;2022-09-19T06:40:32;15.35;;;3.22;;
46222;SDS011;31943;51.410;7.564;2022-09-19T06:42:58;12.00;;;2.38;;
46222;SDS011;31943;51.410;7.564;2022-09-19T06:45:24;13.30;;;2.75;;
46222;SDS011;31943;51.410;7.564;2022-09-19T06:47:49;11.73;;;3.05;;
46222;SDS011;31943;51.410;7.564;2022-09-19T06:50:19;10.63;;;2.75;;
46222;SDS011;31943;51.410;7.564;2022-09-19T06:52:45;14.85;;;3.10;;
46222;SDS011;31943;51.410;7.564;2022-09-19T06:55:11;14.90;;;3.00;;
46222;SDS011;31943;51.410;7.564;2022-09-19T06:57:38;15.55;;;3.42;;
46222;SDS011;31943;51.410;7.564;2022-09-19T07:00:04;10.43;;;2.65;;
46222;SDS011;31943;51.410;7.564;2022-09-19T07:02:31;14.18;;;2.83;;
46222;SDS011;31943;51.410;7.564;2022-09-19T07:04:56;7.85;;;2.50;;
46222;SDS011;31943;51.410;7.564;2022-09-19T07:07:22;12.02;;;3.20;;
46222;SDS011;31943;51.410;7.564;2022-09-19T07:09:48;10.50;;;3.28;;
46222;SDS011;31943;51.410;7.564;2022-09-19T07:12:14;10.75;;;3.17;;
46222;SDS011;31943;51.410;7.564;2022-09-19T07:14:41;11.35;;;2.97;;
46222;SDS011;31943;51.410;7.564;2022-09-19T07:17:07;10.35;;;3.03;;
46222;SDS011;31943;51.410;7.564;2022-09-19T07:19:34;11.93;;;3.78;;
46222;SDS011;31943;51.410;7.564;2022-09-19T07:21:59;10.35;;;3.22;;
46222;SDS011;31943;51.410;7.564;2022-09-19T07:24:25;13.98;;;3.20;;
46222;SDS011;31943;51.410;7.564;2022-09-19T07:26:51;13.57;;;3.00;;
46222;SDS011;31943;51.410;7.564;2022-09-19T07:29:17;17.65;;;3.38;;
46222;SDS011;31943;51.410;7.564;2022-09-19T07:31:44;12.02;;;3.05;;
46222;SDS011;31943;51.410;7.564;2022-09-19T07:34:10;12.88;;;3.70;;
46222;SDS011;31943;51.410;7.564;2022-09-19T07:36:36;12.65;;;2.80;;
46222;SDS011;31943;51.410;7.564;2022-09-19T07:39:02;15.90;;;3.78;;
46222;SDS011;31943;51.410;7.564;2022-09-19T07:41:28;11.10;;;2.92;;
46222;SDS011;31943;51.410;7.564;2022-09-19T07:43:54;12.45;;;2.85;;
46222;SDS011;31943;51.410;7.564;2022-09-19T07:46:19;13.07;;;3.10;;
46222;SDS011;31943;51.410;7.564;2022-09-19T07:48:47;12.38;;;3.90;;
46222;SDS011;31943;51.410;7.564;2022-09-19T07:51:14;15.20;;;2.78;;
46222;SDS011;31943;51.410;7.564;2022-09-19T07:53:41;12.00;;;2.63;;
46222;SDS011;31943;51.410;7.564;2022-09-19T07:56:08;12.50;;;2.95;;
46222;SDS011;31943;51.410;7.564;2022-09-19T07:58:35;10.32;;;2.58;;
46222;SDS011;31943;51.410;7.564;2022-09-19T08:01:02;13.55;;;5.07;;
46222;SDS011;31943;51.410;7.564;2022-09-19T08:03:28;12.13;;;3.78;;
46222;SDS011;31943;51.410;7.564;2022-09-19T08:05:58;13.63;;;2.90;;
46222;SDS011;31943;51.410;7.564;2022-09-19T08:08:24;11.33;;;3.13;;
46222;SDS011;31943;51.410;7.564;2022-09-19T08:10:50;11.18;;;2.85;;
46222;SDS011;31943;51.410;7.564;2022-09-19T08:13:22;9.75;;;3.08;;
46222;SDS011;31943;51.410;7.564;2022-09-19T08:15:48;14.50;;;2.78;;
46222;SDS011;31943;51.410;7.564;2022-09-19T08:18:14;22.17;;;6.00;;
46222;SDS011;31943;51.410;7.564;2022-09-19T08:20:41;14.27;;;3.60;;
46222;SDS011;31943;51.410;7.564;2022-09-19T08:23:10;10.02;;;2.72;;
46222;SDS011;31943;51.410;7.564;2022-09-19T08:25:37;11.18;;;2.75;;
46222;SDS011;31943;51.410;7.564;2022-09-19T08:28:04;10.70;;;3.00;;
46222;SDS011;31943;51.410;7.564;2022-09-19T08:30:31;11.27;;;3.75;;
46222;SDS011;31943;51.410;7.564;2022-09-19T08:33:00;13.02;;;3.05;;
46222;SDS011;31943;51.410;7.564;2022-09-19T08:35:26;11.43;;;2.55;;
46222;SDS011;31943;51.410;7.564;2022-09-19T08:37:53;12.63;;;2.92;;
46222;SDS011;31943;51.410;7.564;2022-09-19T08:40:23;13.57;;;3.20;;
46222;SDS011;31943;51.410;7.564;2022-09-19T08:42:54;10.82;;;2.92;;
46222;SDS011;31943;51.410;7.564;2022-09-19T08:45:32;14.48;;;2.70;;
46222;SDS011;31943;51.410;7.564;2022-09-19T08:48:08;10.68;;;2.72;;
46222;SDS011;31943;51.410;7.564;2022-09-19T08:50:38;13.38;;;3.25;;
46222;SDS011;31943;51.410;7.564;2022-09-19T08:53:09;11.75;;;2.58;;
46222;SDS011;31943;51.410;7.564;2022-09-19T08:55:43;12.70;;;2.65;;
46222;SDS011;31943;51.410;7.564;2022-09-19T08:58:13;10.55;;;2.25;;
46222;SDS011;31943;51.410;7.564;2022-09-19T09:00:48;8.18;;;1.90;;
46222;SDS011;31943;51.410;7.564;2022-09-19T09:03:16;10.77;;;2.58;;
46222;SDS011;31943;51.410;7.564;2022-09-19T09:05:51;11.02;;;2.72;;
46222;SDS011;31943;51.410;7.564;2022-09-19T09:08:29;16.30;;;2.40;;
46222;SDS011;31943;51.410;7.564;2022-09-19T09:11:09;7.60;;;2.10;;
46222;SDS011;31943;51.410;7.564;2022-09-19T09:13:46;10.70;;;2.70;;
46222;SDS011;31943;51.410;7.564;2022-09-19T09:16:30;11.98;;;2.60;;
46222;SDS011;31943;51.410;7.564;2022-09-19T09:19:10;17.40;;;2.92;;
46222;SDS011;31943;51.410;7.564;2022-09-19T09:21:47;10.23;;;2.42;;
46222;SDS011;31943;51.410;7.564;2022-09-19T09:24:21;9.45;;;1.92;;
46222;SDS011;31943;51.410;7.564;2022-09-19T09:26:52;12.48;;;2.38;;
46222;SDS011;31943;51.410;7.564;2022-09-19T09:29:24;6.45;;;1.75;;
46222;SDS011;31943;51.410;7.564;2022-09-19T09:31:58;9.65;;;2.00;;
46222;SDS011;31943;51.410;7.564;2022-09-19T09:34:33;6.53;;;1.77;;
46222;SDS011;31943;51.410;7.564;2022-09-19T09:37:03;12.20;;;2.35;;
46222;SDS011;31943;51.410;7.564;2022-09-19T09:39:36;7.90;;;2.25;;
46222;SDS011;31943;51.410;7.564;2022-09-19T09:42:07;12.10;;;2.55;;
46222;SDS011;31943;51.410;7.564;2022-09-19T09:44:36;7.60;;;1.95;;
46222;SDS011;31943;51.410;7.564;2022-09-19T09:47:23;11.90;;;2.45;;
46222;SDS011;31943;51.410;7.564;2022-09-19T09:49:59;10.43;;;2.38;;
46222;SDS011;31943;51.410;7.564;2022-09-19T09:52:39;7.87;;;2.07;;
46222;SDS011;31943;51.410;7.564;2022-09-19T09:55:20;7.57;;;1.80;;
46222;SDS011;31943;51.410;7.564;2022-09-19T09:58:00;6.28;;;1.85;;
46222;SDS011;31943;51.410;7.564;2022-09-19T10:00:33;8.95;;;2.10;;
46222;SDS011;31943;51.410;7.564;2022-09-19T10:03:06;9.07;;;1.80;;
46222;SDS011;31943;51.410;7.564;2022-09-19T10:05:46;7.88;;;1.58;;
46222;SDS011;31943;51.410;7.564;2022-09-19T10:08:17;8.70;;;1.30;;
46222;SDS011;31943;51.410;7.564;2022-09-19T10:10:46;7.28;;;1.35;;
46222;SDS011;31943;51.410;7.564;2022-09-19T10:13:17;12.23;;;1.67;;
46222;SDS011;31943;51.410;7.564;2022-09-19T10:15:48;6.47;;;1.35;;
46222;SDS011;31943;51.410;7.564;2022-09-19T10:18:17;9.50;;;1.50;;
46222;SDS011;31943;51.410;7.564;2022-09-19T10:20:43;6.80;;;1.35;;
46222;SDS011;31943;51.410;7.564;2022-09-19T10:23:12;8.38;;;1.70;;
46222;SDS011;31943;51.410;7.564;2022-09-19T10:25:39;5.38;;;2.22;;
46222;SDS011;31943;51.410;7.564;2022-09-19T10:28:14;7.47;;;1.70;;
46222;SDS011;31943;51.410;7.564;2022-09-19T10:30:53;6.18;;;1.55;;
46222;SDS011;31943;51.410;7.564;2022-09-19T10:33:24;6.82;;;1.83;;
46222;SDS011;31943;51.410;7.564;2022-09-19T10:35:52;8.98;;;1.30;;
46222;SDS011;31943;51.410;7.564;2022-09-19T10:38:18;10.50;;;1.63;;
46222;SDS011;31943;51.410;7.564;2022-09-19T10:40:50;7.20;;;1.73;;
46222;SDS011;31943;51.410;7.564;2022-09-19T10:43:22;4.85;;;1.40;;
46222;SDS011;31943;51.410;7.564;2022-09-19T10:45:49;4.43;;;1.08;;
46222;SDS011;31943;51.410;7.564;2022-09-19T10:48:15;4.68;;;1.25;;
46222;SDS011;31943;51.410;7.564;2022-09-19T10:50:46;6.00;;;1.83;;
46222;SDS011;31943;51.410;7.564;2022-09-19T10:53:16;4.00;;;1.13;;
46222;SDS011;31943;51.410;7.564;2022-09-19T10:55:44;7.88;;;1.50;;
46222;SDS011;31943;51.410;7.564;2022-09-19T10:58:12;4.20;;;0.85;;
46222;SDS011;31943;51.410;7.564;2022-09-19T11:00:50;5.80;;;1.37;;
46222;SDS011;31943;51.410;7.564;2022-09-19T11:03:19;10.30;;;1.95;;
46222;SDS011;31943;51.410;7.564;2022-09-19T11:05:46;7.13;;;1.60;;
46222;SDS011;31943;51.410;7.564;2022-09-19T11:08:27;7.70;;;1.63;;
46222;SDS011;31943;51.410;7.564;2022-09-19T11:10:54;8.50;;;1.63;;
46222;SDS011;31943;51.410;7.564;2022-09-19T11:13:19;7.93;;;1.80;;
46222;SDS011;31943;51.410;7.564;2022-09-19T11:15:54;5.95;;;1.55;;
46222;SDS011;31943;51.410;7.564;2022-09-19T11:18:47;4.93;;;1.30;;
46222;SDS011;31943;51.410;7.564;2022-09-19T11:21:22;3.83;;;1.35;;
46222;SDS011;31943;51.410;7.564;2022-09-19T11:27:01;3.78;;;1.20;;
46222;SDS011;31943;51.410;7.564;2022-09-19T11:29:50;5.07;;;1.15;;
46222;SDS011;31943;51.410;7.564;2022-09-19T11:32:31;5.68;;;1.17;;
46222;SDS011;31943;51.410;7.564;2022-09-19T11:35:07;4.95;;;1.63;;
46222;SDS011;31943;51.410;7.564;2022-09-19T11:37:48;12.32;;;1.48;;
46222;SDS011;31943;51.410;7.564;2022-09-19T11:40:22;10.13;;;1.85;;
46222;SDS011;31943;51.410;7.564;2022-09-19T11:43:04;7.03;;;1.83;;
46222;SDS011;31943;51.410;7.564;2022-09-19T11:45:43;3.72;;;1.42;;
46222;SDS011;31943;51.410;7.564;2022-09-19T11:51:18;4.15;;;1.20;;
46222;SDS011;31943;51.410;7.564;2022-09-19T11:53:56;7.50;;;1.70;;
46222;SDS011;31943;51.410;7.564;2022-09-19T11:56:48;4.50;;;1.10;;
46222;SDS011;31943;51.410;7.564;2022-09-19T11:59:35;7.85;;;1.70;;
46222;SDS011;31943;51.410;7.564;2022-09-19T12:02:35;6.15;;;1.70;;
46222;SDS011;31943;51.410;7.564;2022-09-19T12:05:15;7.20;;;1.58;;
46222;SDS011;31943;51.410;7.564;2022-09-19T12:07:53;6.13;;;1.50;;
46222;SDS011;31943;51.410;7.564;2022-09-19T12:10:32;6.60;;;1.33;;
46222;SDS011;31943;51.410;7.564;2022-09-19T12:13:02;5.28;;;1.40;;
46222;SDS011;31943;51.410;7.564;2022-09-19T12:15:34;4.22;;;1.17;;
46222;SDS011;31943;51.410;7.564;2022-09-19T12:18:04;5.95;;;1.20;;
46222;SDS011;31943;51.410;7.564;2022-09-19T12:20:35;9.77;;;1.23;;
46222;SDS011;31943;51.410;7.564;2022-09-19T12:23:08;4.80;;;1.15;;
46222;SDS011;31943;51.410;7.564;2022-09-19T12:25:42;6.28;;;1.45;;
46222;SDS011;31943;51.410;7.564;2022-09-19T12:28:18;4.55;;;1.30;;
46222;SDS011;31943;51.410;7.564;2022-09-19T12:30:49;7.95;;;1.23;;
46222;SDS011;31943;51.410;7.564;2022-09-19T12:33:21;10.15;;;2.88;;
46222;SDS011;31943;51.410;7.564;2022-09-19T12:35:52;3.72;;;1.42;;
46222;SDS011;31943;51.410;7.564;2022-09-19T12:38:27;4.25;;;1.27;;
46222;SDS011;31943;51.410;7.564;2022-09-19T12:41:03;6.07;;;1.58;;
46222;SDS011;31943;51.410;7.564;2022-09-19T12:43:35;5.15;;;1.23;;
46222;SDS011;31943;51.410;7.564;2022-09-19T12:46:09;5.45;;;1.02;;
46222;SDS011;31943;51.410;7.564;2022-09-19T12:48:48;6.03;;;1.58;;
46222;SDS011;31943;51.410;7.564;2022-09-19T12:53:49;5.75;;;1.15;;
46222;SDS011;31943;51.410;7.564;2022-09-19T12:56:28;4.28;;;1.27;;
46222;SDS011;31943;51.410;7.564;2022-09-19T12:58:59;4.35;;;1.15;;
46222;SDS011;31943;51.410;7.564;2022-09-19T13:01:33;4.20;;;0.82;;
46222;SDS011;31943;51.410;7.564;2022-09-19T13:04:08;4.13;;;0.73;;
46222;SDS011;31943;51.410;7.564;2022-09-19T13:06:43;4.55;;;0.90;;
46222;SDS011;31943;51.410;7.564;2022-09-19T13:09:14;2.67;;;0.73;;
46222;SDS011;31943;51.410;7.564;2022-09-19T13:11:44;1.85;;;0.60;;
46222;SDS011;31943;51.410;7.564;2022-09-19T13:14:15;1.80;;;0.60;;
46222;SDS011;31943;51.410;7.564;2022-09-19T13:16:45;3.25;;;0.82;;
46222;SDS011;31943;51.410;7.564;2022-09-19T13:19:12;1.92;;;0.90;;
46222;SDS011;31943;51.410;7.564;2022-09-19T13:21:38;1.95;;;0.47;;
46222;SDS011;31943;51.410;7.564;2022-09-19T13:24:06;3.05;;;0.57;;
46222;SDS011;31943;51.410;7.564;2022-09-19T13:26:34;3.60;;;0.90;;
46222;SDS011;31943;51.410;7.564;2022-09-19T13:29:02;1.20;;;0.30;;
46222;SDS011;31943;51.410;7.564;2022-09-19T13:31:33;2.15;;;0.43;;
46222;SDS011;31943;51.410;7.564;2022-09-19T13:34:35;3.60;;;0.80;;
46222;SDS011;31943;51.410;7.564;2022-09-19T13:37:07;2.80;;;1.20;;
46222;SDS011;31943;51.410;7.564;2022-09-19T13:40:17;3.33;;;1.65;;
46222;SDS011;31943;51.410;7.564;2022-09-19T13:43:00;3.95;;;1.42;;
46222;SDS011;31943;51.410;7.564;2022-09-19T13:45:32;4.43;;;0.60;;
46222;SDS011;31943;51.410;7.564;2022-09-19T13:48:04;3.35;;;0.77;;
46222;SDS011;31943;51.410;7.564;2022-09-19T13:50:38;2.97;;;1.15;;
46222;SDS011;31943;51.410;7.564;2022-09-19T13:53:20;4.43;;;0.80;;
46222;SDS011;31943;51.410;7.564;2022-09-19T13:55:57;3.53;;;0.80;;
46222;SDS011;31943;51.410;7.564;2022-09-19T13:58:28;7.85;;;1.70;;
46222;SDS011;31943;51.410;7.564;2022-09-19T14:01:15;3.40;;;0.50;;
46222;SDS011;31943;51.410;7.564;2022-09-19T14:03:44;7.93;;;1.10;;
46222;SDS011;31943;51.410;7.564;2022-09-19T14:06:18;3.70;;;0.88;;
46222;SDS011;31943;51.410;7.564;2022-09-19T14:11:45;4.50;;;1.25;;
46222;SDS011;31943;51.410;7.564;2022-09-19T14:17:23;3.97;;;1.10;;
46222;SDS011;31943;51.410;7.564;2022-09-19T14:19:52;4.43;;;0.95;;
46222;SDS011;31943;51.410;7.564;2022-09-19T14:22:35;5.20;;;1.15;;
46222;SDS011;31943;51.410;7.564;2022-09-19T14:25:06;4.88;;;0.63;;
46222;SDS011;31943;51.410;7.564;2022-09-19T14:27:47;3.95;;;0.98;;
46222;SDS011;31943;51.410;7.564;2022-09-19T14:33:49;3.85;;;0.70;;
46222;SDS011;31943;51.410;7.564;2022-09-19T14:39:33;3.58;;;0.88;;
46222;SDS011;31943;51.410;7.564;2022-09-19T14:42:17;2.35;;;0.77;;
46222;SDS011;31943;51.410;7.564;2022-09-19T14:47:58;3.72;;;0.70;;
46222;SDS011;31943;51.410;7.564;2022-09-19T14:50:29;3.22;;;0.80;;
46222;SDS011;31943;51.410;7.564;2022-09-19T14:55:28;2.05;;;0.65;;
46222;SDS011;31943;51.410;7.564;2022-09-19T14:57:55;5.32;;;1.05;;
46222;SDS011;31943;51.410;7.564;2022-09-19T15:00:22;2.33;;;0.82;;
46222;SDS011;31943;51.410;7.564;2022-09-19T15:02:48;4.70;;;3.65;;
46222;SDS011;31943;51.410;7.564;2022-09-19T15:05:17;2.22;;;0.93;;
46222;SDS011;31943;51.410;7.564;2022-09-19T15:07:45;3.30;;;0.80;;
46222;SDS011;31943;51.410;7.564;2022-09-19T15:10:25;3.10;;;0.60;;
46222;SDS011;31943;51.410;7.564;2022-09-19T15:12:53;1.60;;;0.45;;
46222;SDS011;31943;51.410;7.564;2022-09-19T15:15:21;1.35;;;0.65;;
46222;SDS011;31943;51.410;7.564;2022-09-19T15:17:50;3.80;;;0.93;;
46222;SDS011;31943;51.410;7.564;2022-09-19T15:20:18;4.68;;;0.88;;
46222;SDS011;31943;51.410;7.564;2022-09-19T15:22:46;5.82;;;2.38;;
46222;SDS011;31943;51.410;7.564;2022-09-19T15:25:16;2.35;;;0.60;;
46222;SDS011;31943;51.410;7.564;2022-09-19T15:27:45;3.42;;;1.02;;
46222;SDS011;31943;51.410;7.564;2022-09-19T15:30:15;5.63;;;1.35;;
46222;SDS011;31943;51.410;7.564;2022-09-19T15:32:43;1.58;;;0.65;;